IBE04BR LEMD-LEBB
Flight info
| Callsign | IBE04BR |
|---|---|
| Flight time | 0h 35m |
| Altitude | 28000 |
| Route | RBO N867 DGO |
| Aircraft | A20N/M-SDE2E3FGHIRWXY/LB1 |
Departure
| Time | 2026-05-05 16:16 |
|---|---|
| Airport | Adolfo Suárez Madrid–Barajas Airport (LEMD) |
Arrival
| Time | 2026-05-05 16:51 |
|---|---|
| Airport | Bilbao Airport (LEBB) |
| Time | Latitude | Longitude | Altitude | Speed | Heading |
|---|---|---|---|---|---|
| 2026-05-05 15:54 | 40.48800 | -3.58994 | 1980 ft | 0 kts | 270° |
| 2026-05-05 16:03 | 40.48800 | -3.58987 | 1980 ft | 2 kts | 268° |
| 2026-05-05 16:03 | 40.48801 | -3.58965 | 1980 ft | 2 kts | 264° |
| 2026-05-05 16:03 | 40.48804 | -3.58943 | 1980 ft | 2 kts | 256° |
| 2026-05-05 16:03 | 40.48809 | -3.58923 | 1984 ft | 2 kts | 233° |
| 2026-05-05 16:04 | 40.48822 | -3.58909 | 1981 ft | 2 kts | 202° |
| 2026-05-05 16:04 | 40.48838 | -3.58903 | 1981 ft | 2 kts | 185° |
| 2026-05-05 16:04 | 40.48850 | -3.58902 | 1980 ft | 1 kts | 180° |
| 2026-05-05 16:04 | 40.48857 | -3.58902 | 1980 ft | 1 kts | 179° |
| 2026-05-05 16:05 | 40.48858 | -3.58902 | 1980 ft | 0 kts | 179° |
| 2026-05-05 16:06 | 40.48815 | -3.58901 | 1981 ft | 11 kts | 179° |
| 2026-05-05 16:07 | 40.48766 | -3.58873 | 1980 ft | 9 kts | 112° |
| 2026-05-05 16:07 | 40.48760 | -3.58780 | 1980 ft | 11 kts | 89° |
| 2026-05-05 16:07 | 40.48761 | -3.58689 | 1980 ft | 12 kts | 89° |
| 2026-05-05 16:07 | 40.48761 | -3.58592 | 1980 ft | 11 kts | 90° |
| 2026-05-05 16:08 | 40.48761 | -3.58469 | 1980 ft | 15 kts | 90° |
| 2026-05-05 16:08 | 40.48762 | -3.58313 | 1980 ft | 19 kts | 89° |
| 2026-05-05 16:08 | 40.48764 | -3.58138 | 1980 ft | 15 kts | 89° |
| 2026-05-05 16:08 | 40.48820 | -3.58060 | 1980 ft | 9 kts | 6° |
| 2026-05-05 16:09 | 40.48856 | -3.58003 | 1980 ft | 9 kts | 81° |
| 2026-05-05 16:09 | 40.48857 | -3.57903 | 1980 ft | 13 kts | 89° |
| 2026-05-05 16:09 | 40.48859 | -3.57768 | 1980 ft | 17 kts | 89° |
| 2026-05-05 16:09 | 40.48860 | -3.57608 | 1980 ft | 20 kts | 90° |
| 2026-05-05 16:10 | 40.48860 | -3.57412 | 1980 ft | 23 kts | 90° |
| 2026-05-05 16:10 | 40.48862 | -3.57184 | 1980 ft | 26 kts | 89° |
| 2026-05-05 16:10 | 40.48860 | -3.57009 | 1980 ft | 20 kts | 91° |
| 2026-05-05 16:10 | 40.48863 | -3.56820 | 1980 ft | 22 kts | 89° |
| 2026-05-05 16:11 | 40.48864 | -3.56600 | 1980 ft | 26 kts | 90° |
| 2026-05-05 16:11 | 40.48994 | -3.56251 | 1980 ft | 12 kts | 359° |
| 2026-05-05 16:12 | 40.49087 | -3.56249 | 1980 ft | 15 kts | 0° |
| 2026-05-05 16:12 | 40.49320 | -3.56252 | 1980 ft | 19 kts | 359° |
| 2026-05-05 16:13 | 40.49754 | -3.56254 | 1980 ft | 20 kts | 1° |
| 2026-05-05 16:13 | 40.49869 | -3.56255 | 1980 ft | 17 kts | 359° |
| 2026-05-05 16:13 | 40.49968 | -3.56262 | 1980 ft | 10 kts | 355° |
| 2026-05-05 16:14 | 40.50028 | -3.56141 | 1980 ft | 10 kts | 89° |
| 2026-05-05 16:14 | 40.50096 | -3.55945 | 1980 ft | 14 kts | 27° |
| 2026-05-05 16:15 | 40.50476 | -3.55929 | 1982 ft | 76 kts | 358° |
| 2026-05-05 16:15 | 40.52274 | -3.55916 | 2148 ft | 158 kts | 358° |
| 2026-05-05 16:16 | 40.54506 | -3.55735 | 3275 ft | 168 kts | 359° |
| 2026-05-05 16:16 | 40.56865 | -3.55798 | 4409 ft | 185 kts | 353° |
| 2026-05-05 16:17 | 40.59776 | -3.55884 | 5444 ft | 234 kts | 356° |
| 2026-05-05 16:17 | 40.61486 | -3.55875 | 6146 ft | 256 kts | 357° |
| 2026-05-05 16:18 | 40.65136 | -3.55073 | 8051 ft | 283 kts | 28° |
| 2026-05-05 16:18 | 40.66665 | -3.53333 | 9106 ft | 295 kts | 45° |
| 2026-05-05 16:18 | 40.69352 | -3.49062 | 10826 ft | 320 kts | 49° |
| 2026-05-05 16:19 | 40.70830 | -3.46707 | 11275 ft | 344 kts | 48° |
| 2026-05-05 16:19 | 40.72429 | -3.44237 | 12012 ft | 356 kts | 47° |
| 2026-05-05 16:19 | 40.75708 | -3.39271 | 13900 ft | 366 kts | 47° |
| 2026-05-05 16:20 | 40.79099 | -3.34165 | 15587 ft | 375 kts | 47° |
| 2026-05-05 16:20 | 40.82572 | -3.28923 | 17206 ft | 385 kts | 46° |
| 2026-05-05 16:21 | 40.86800 | -3.24614 | 18722 ft | 386 kts | 18° |
| 2026-05-05 16:22 | 40.94719 | -3.22583 | 20812 ft | 394 kts | 6° |
| 2026-05-05 16:22 | 41.00153 | -3.21372 | 22183 ft | 402 kts | 6° |
| 2026-05-05 16:23 | 41.05671 | -3.20133 | 23510 ft | 411 kts | 6° |
| 2026-05-05 16:23 | 41.08511 | -3.19495 | 24080 ft | 414 kts | 6° |
| 2026-05-05 16:23 | 41.14213 | -3.18212 | 25145 ft | 423 kts | 5° |
| 2026-05-05 16:24 | 41.17164 | -3.17547 | 25694 ft | 426 kts | 5° |
| 2026-05-05 16:24 | 41.20096 | -3.16885 | 26220 ft | 430 kts | 5° |
| 2026-05-05 16:24 | 41.26033 | -3.15543 | 27186 ft | 438 kts | 5° |
| 2026-05-05 16:25 | 41.29043 | -3.14863 | 27670 ft | 442 kts | 5° |
| 2026-05-05 16:25 | 41.35164 | -3.13476 | 27977 ft | 445 kts | 5° |
| 2026-05-05 16:25 | 41.38189 | -3.12789 | 27966 ft | 445 kts | 5° |
| 2026-05-05 16:26 | 41.44272 | -3.11408 | 27967 ft | 446 kts | 5° |
| 2026-05-05 16:26 | 41.50403 | -3.10015 | 27967 ft | 446 kts | 5° |
| 2026-05-05 16:27 | 41.53465 | -3.09319 | 27974 ft | 446 kts | 5° |
| 2026-05-05 16:27 | 41.56491 | -3.08629 | 27978 ft | 446 kts | 5° |
| 2026-05-05 16:27 | 41.59547 | -3.07933 | 27976 ft | 446 kts | 5° |
| 2026-05-05 16:27 | 41.62610 | -3.07235 | 27977 ft | 446 kts | 5° |
| 2026-05-05 16:28 | 41.65684 | -3.06534 | 27982 ft | 446 kts | 5° |
| 2026-05-05 16:28 | 41.68742 | -3.05836 | 27978 ft | 447 kts | 5° |
| 2026-05-05 16:28 | 41.71782 | -3.05141 | 27976 ft | 446 kts | 5° |
| 2026-05-05 16:28 | 41.74862 | -3.04435 | 27985 ft | 447 kts | 5° |
| 2026-05-05 16:29 | 41.77938 | -3.03729 | 27976 ft | 447 kts | 5° |
| 2026-05-05 16:29 | 41.81002 | -3.03024 | 27980 ft | 447 kts | 5° |
| 2026-05-05 16:29 | 41.84042 | -3.02325 | 27988 ft | 447 kts | 5° |
| 2026-05-05 16:29 | 41.87111 | -3.01618 | 27982 ft | 447 kts | 5° |
| 2026-05-05 16:30 | 41.90186 | -3.00909 | 27985 ft | 447 kts | 5° |
| 2026-05-05 16:30 | 41.93263 | -3.00200 | 27991 ft | 448 kts | 5° |
| 2026-05-05 16:30 | 41.96308 | -2.99497 | 27990 ft | 447 kts | 5° |
| 2026-05-05 16:30 | 41.99378 | -2.98787 | 27992 ft | 448 kts | 5° |
| 2026-05-05 16:31 | 42.02451 | -2.98076 | 27992 ft | 448 kts | 5° |
| 2026-05-05 16:31 | 42.05505 | -2.97368 | 27992 ft | 447 kts | 6° |
| 2026-05-05 16:31 | 42.08594 | -2.96652 | 27996 ft | 448 kts | 6° |
| 2026-05-05 16:31 | 42.11668 | -2.95938 | 27994 ft | 448 kts | 6° |
| 2026-05-05 16:32 | 42.14712 | -2.95231 | 27998 ft | 447 kts | 6° |
| 2026-05-05 16:32 | 42.17790 | -2.94515 | 27884 ft | 448 kts | 6° |
| 2026-05-05 16:32 | 42.20862 | -2.93799 | 27620 ft | 445 kts | 6° |
| 2026-05-05 16:32 | 42.23909 | -2.93089 | 27350 ft | 443 kts | 6° |
| 2026-05-05 16:33 | 42.26904 | -2.92391 | 27093 ft | 441 kts | 6° |
| 2026-05-05 16:33 | 42.29929 | -2.91686 | 26822 ft | 439 kts | 6° |
| 2026-05-05 16:33 | 42.32946 | -2.90981 | 26255 ft | 439 kts | 6° |
| 2026-05-05 16:33 | 42.35963 | -2.90275 | 25644 ft | 436 kts | 6° |
| 2026-05-05 16:34 | 42.38909 | -2.89585 | 25035 ft | 432 kts | 7° |
| 2026-05-05 16:34 | 42.41855 | -2.88884 | 24382 ft | 430 kts | 9° |
| 2026-05-05 16:34 | 42.44719 | -2.87669 | 23763 ft | 430 kts | 22° |
| 2026-05-05 16:34 | 42.47261 | -2.85672 | 23164 ft | 428 kts | 34° |
| 2026-05-05 16:35 | 42.49515 | -2.83060 | 22554 ft | 423 kts | 40° |
| 2026-05-05 16:35 | 42.51704 | -2.80410 | 21946 ft | 417 kts | 40° |
| 2026-05-05 16:35 | 42.53129 | -2.78694 | 21538 ft | 414 kts | 40° |
| 2026-05-05 16:35 | 42.55962 | -2.75288 | 20753 ft | 408 kts | 40° |
| 2026-05-05 16:36 | 42.57375 | -2.73587 | 20363 ft | 405 kts | 40° |
| 2026-05-05 16:36 | 42.59478 | -2.71051 | 19776 ft | 402 kts | 40° |
| 2026-05-05 16:36 | 42.61565 | -2.68531 | 19183 ft | 399 kts | 40° |
| 2026-05-05 16:36 | 42.63629 | -2.66035 | 18575 ft | 396 kts | 40° |
| 2026-05-05 16:37 | 42.65661 | -2.63574 | 17950 ft | 394 kts | 40° |
| 2026-05-05 16:37 | 42.67698 | -2.61105 | 17401 ft | 388 kts | 40° |
| 2026-05-05 16:37 | 42.69709 | -2.58665 | 16822 ft | 384 kts | 40° |
| 2026-05-05 16:37 | 42.71677 | -2.56274 | 16261 ft | 380 kts | 40° |
| 2026-05-05 16:38 | 42.73636 | -2.53893 | 15699 ft | 377 kts | 40° |
| 2026-05-05 16:38 | 42.75588 | -2.51519 | 15118 ft | 374 kts | 40° |
| 2026-05-05 16:38 | 42.77507 | -2.49182 | 14519 ft | 373 kts | 40° |
| 2026-05-05 16:38 | 42.79439 | -2.46828 | 14018 ft | 369 kts | 40° |
| 2026-05-05 16:39 | 42.81360 | -2.44482 | 13282 ft | 370 kts | 40° |
| 2026-05-05 16:39 | 42.83252 | -2.42172 | 12807 ft | 364 kts | 40° |
| 2026-05-05 16:39 | 42.85119 | -2.39887 | 12353 ft | 357 kts | 40° |
| 2026-05-05 16:39 | 42.86933 | -2.37669 | 11827 ft | 353 kts | 40° |
| 2026-05-05 16:40 | 42.88757 | -2.35436 | 11306 ft | 349 kts | 40° |
| 2026-05-05 16:40 | 42.90534 | -2.33261 | 10792 ft | 346 kts | 40° |
| 2026-05-05 16:40 | 42.92322 | -2.31069 | 10326 ft | 342 kts | 40° |
| 2026-05-05 16:40 | 42.94039 | -2.28960 | 10103 ft | 321 kts | 40° |
| 2026-05-05 16:41 | 42.95660 | -2.27023 | 9881 ft | 302 kts | 33° |
| 2026-05-05 16:41 | 42.97508 | -2.25876 | 9436 ft | 292 kts | 8° |
| 2026-05-05 16:41 | 42.99495 | -2.25935 | 9095 ft | 281 kts | 342° |
| 2026-05-05 16:41 | 43.01168 | -2.27177 | 8976 ft | 269 kts | 315° |
| 2026-05-05 16:42 | 43.02415 | -2.29064 | 8853 ft | 272 kts | 310° |
| 2026-05-05 16:42 | 43.03649 | -2.31008 | 8614 ft | 271 kts | 310° |
| 2026-05-05 16:42 | 43.04908 | -2.32923 | 8257 ft | 270 kts | 311° |
| 2026-05-05 16:42 | 43.06180 | -2.34799 | 7907 ft | 266 kts | 312° |
| 2026-05-05 16:43 | 43.07433 | -2.36611 | 7571 ft | 261 kts | 312° |
| 2026-05-05 16:43 | 43.08689 | -2.38412 | 7230 ft | 258 kts | 313° |
| 2026-05-05 16:43 | 43.09903 | -2.40149 | 6895 ft | 255 kts | 313° |
| 2026-05-05 16:43 | 43.11111 | -2.41874 | 6589 ft | 252 kts | 312° |
| 2026-05-05 16:44 | 43.12308 | -2.43609 | 6203 ft | 251 kts | 309° |
| 2026-05-05 16:44 | 43.13305 | -2.45573 | 6031 ft | 255 kts | 298° |
| 2026-05-05 16:44 | 43.14089 | -2.47711 | 5993 ft | 243 kts | 296° |
| 2026-05-05 16:44 | 43.14817 | -2.49690 | 5994 ft | 227 kts | 296° |
| 2026-05-05 16:45 | 43.15443 | -2.51371 | 5998 ft | 214 kts | 296° |
| 2026-05-05 16:45 | 43.16093 | -2.53106 | 5986 ft | 202 kts | 296° |
| 2026-05-05 16:45 | 43.16716 | -2.54779 | 5875 ft | 195 kts | 297° |
| 2026-05-05 16:45 | 43.17365 | -2.56443 | 5684 ft | 198 kts | 298° |
| 2026-05-05 16:46 | 43.18008 | -2.58121 | 5552 ft | 198 kts | 296° |
| 2026-05-05 16:46 | 43.18628 | -2.59810 | 5432 ft | 196 kts | 296° |
| 2026-05-05 16:46 | 43.19238 | -2.61466 | 5270 ft | 197 kts | 296° |
| 2026-05-05 16:46 | 43.19853 | -2.63138 | 5024 ft | 198 kts | 296° |
| 2026-05-05 16:47 | 43.20476 | -2.64831 | 4757 ft | 198 kts | 297° |
| 2026-05-05 16:47 | 43.21101 | -2.66529 | 4468 ft | 201 kts | 296° |
| 2026-05-05 16:47 | 43.21734 | -2.68249 | 4162 ft | 202 kts | 296° |
| 2026-05-05 16:47 | 43.22371 | -2.69982 | 3878 ft | 204 kts | 296° |
| 2026-05-05 16:48 | 43.23009 | -2.71716 | 3568 ft | 209 kts | 296° |
| 2026-05-05 16:48 | 43.23678 | -2.73536 | 3244 ft | 219 kts | 297° |
| 2026-05-05 16:48 | 43.24375 | -2.75436 | 2863 ft | 223 kts | 297° |
| 2026-05-05 16:48 | 43.25068 | -2.77318 | 2550 ft | 222 kts | 295° |
| 2026-05-05 16:49 | 43.25744 | -2.79158 | 2205 ft | 207 kts | 295° |
| 2026-05-05 16:49 | 43.26362 | -2.80849 | 1882 ft | 191 kts | 296° |
| 2026-05-05 16:49 | 43.26929 | -2.82392 | 1621 ft | 172 kts | 297° |
| 2026-05-05 16:49 | 43.27442 | -2.83788 | 1349 ft | 152 kts | 297° |
| 2026-05-05 16:50 | 43.27839 | -2.84869 | 1129 ft | 134 kts | 296° |
| 2026-05-05 16:50 | 43.28233 | -2.85944 | 931 ft | 119 kts | 296° |
| 2026-05-05 16:50 | 43.28612 | -2.86976 | 751 ft | 127 kts | 296° |
| 2026-05-05 16:50 | 43.29021 | -2.88093 | 562 ft | 129 kts | 296° |
| 2026-05-05 16:51 | 43.29412 | -2.89154 | 364 ft | 119 kts | 296° |
| 2026-05-05 16:51 | 43.29784 | -2.90168 | 180 ft | 122 kts | 296° |
| 2026-05-05 16:51 | 43.30138 | -2.91142 | 121 ft | 90 kts | 296° |
| 2026-05-05 16:51 | 43.30330 | -2.91662 | 126 ft | 34 kts | 298° |
| 2026-05-05 16:52 | 43.30454 | -2.91909 | 124 ft | 30 kts | 326° |
| 2026-05-05 16:52 | 43.30542 | -2.91980 | 120 ft | 0 kts | 8° |
| 2026-05-05 16:52 | 43.30544 | -2.91982 | 124 ft | 0 kts | 347° |
| 2026-05-05 16:52 | 43.30547 | -2.91987 | 124 ft | 2 kts | 325° |
| 2026-05-05 16:53 | 43.30580 | -2.92021 | 124 ft | 10 kts | 323° |
| 2026-05-05 16:53 | 43.30635 | -2.91994 | 123 ft | 14 kts | 84° |
| 2026-05-05 16:53 | 43.30580 | -2.91834 | 120 ft | 24 kts | 118° |
| 2026-05-05 16:53 | 43.30490 | -2.91590 | 120 ft | 33 kts | 117° |
| 2026-05-05 16:54 | 43.30380 | -2.91284 | 122 ft | 37 kts | 117° |
| 2026-05-05 16:54 | 43.30304 | -2.91044 | 121 ft | 0 kts | 76° |
| 2026-05-05 16:54 | 43.30305 | -2.91043 | 121 ft | 1 kts | 71° |
| 2026-05-05 16:54 | 43.30324 | -2.91022 | 121 ft | 7 kts | 30° |
| 2026-05-05 16:55 | 43.30377 | -2.90985 | 129 ft | 12 kts | 30° |
| 2026-05-05 16:55 | 43.30414 | -2.90862 | 131 ft | 14 kts | 57° |
| 2026-05-05 16:55 | 43.30445 | -2.90838 | 131 ft | 4 kts | 30° |
| 2026-05-05 16:55 | 43.30474 | -2.90815 | 131 ft | 3 kts | 28° |
| 2026-05-05 16:56 | 43.30480 | -2.90811 | 131 ft | 0 kts | 28° |